sensor_id;sensor_type;location;lat;lon;timestamp;P1;durP1;ratioP1;P2;durP2;ratioP2
45893;SDS011;31603;51.148;16.932;2023-05-10T00:01:55;5.88;;;4.68;;
45893;SDS011;31603;51.148;16.932;2023-05-10T00:04:22;6.32;;;4.25;;
45893;SDS011;31603;51.148;16.932;2023-05-10T00:06:52;8.73;;;4.22;;
45893;SDS011;31603;51.148;16.932;2023-05-10T00:09:18;7.50;;;4.45;;
45893;SDS011;31603;51.148;16.932;2023-05-10T00:11:44;7.60;;;4.35;;
45893;SDS011;31603;51.148;16.932;2023-05-10T00:14:11;12.30;;;4.18;;
45893;SDS011;31603;51.148;16.932;2023-05-10T00:16:38;8.45;;;4.80;;
45893;SDS011;31603;51.148;16.932;2023-05-10T00:19:05;9.00;;;4.53;;
45893;SDS011;31603;51.148;16.932;2023-05-10T00:21:31;9.75;;;4.40;;
45893;SDS011;31603;51.148;16.932;2023-05-10T00:23:58;8.38;;;4.68;;
45893;SDS011;31603;51.148;16.932;2023-05-10T00:26:24;8.93;;;4.78;;
45893;SDS011;31603;51.148;16.932;2023-05-10T00:28:51;8.75;;;5.07;;
45893;SDS011;31603;51.148;16.932;2023-05-10T00:31:17;8.98;;;5.15;;
45893;SDS011;31603;51.148;16.932;2023-05-10T00:33:44;10.13;;;4.97;;
45893;SDS011;31603;51.148;16.932;2023-05-10T00:36:11;9.68;;;4.97;;
45893;SDS011;31603;51.148;16.932;2023-05-10T00:38:37;10.13;;;5.18;;
45893;SDS011;31603;51.148;16.932;2023-05-10T00:41:03;7.32;;;5.03;;
45893;SDS011;31603;51.148;16.932;2023-05-10T00:43:30;10.30;;;4.75;;
45893;SDS011;31603;51.148;16.932;2023-05-10T00:45:56;9.13;;;5.13;;
45893;SDS011;31603;51.148;16.932;2023-05-10T00:48:22;9.38;;;5.03;;
45893;SDS011;31603;51.148;16.932;2023-05-10T00:50:50;8.13;;;5.30;;
45893;SDS011;31603;51.148;16.932;2023-05-10T00:53:17;11.65;;;5.03;;
45893;SDS011;31603;51.148;16.932;2023-05-10T00:55:43;7.80;;;4.60;;
45893;SDS011;31603;51.148;16.932;2023-05-10T00:58:09;9.73;;;4.97;;
45893;SDS011;31603;51.148;16.932;2023-05-10T01:00:36;9.18;;;5.15;;
45893;SDS011;31603;51.148;16.932;2023-05-10T01:03:03;9.23;;;5.03;;
45893;SDS011;31603;51.148;16.932;2023-05-10T01:05:29;8.20;;;5.30;;
45893;SDS011;31603;51.148;16.932;2023-05-10T01:07:58;9.80;;;4.88;;
45893;SDS011;31603;51.148;16.932;2023-05-10T01:10:24;10.55;;;5.30;;
45893;SDS011;31603;51.148;16.932;2023-05-10T01:12:50;9.65;;;5.57;;
45893;SDS011;31603;51.148;16.932;2023-05-10T01:15:17;10.27;;;5.72;;
45893;SDS011;31603;51.148;16.932;2023-05-10T01:17:44;9.85;;;5.32;;
45893;SDS011;31603;51.148;16.932;2023-05-10T01:20:11;10.40;;;5.35;;
45893;SDS011;31603;51.148;16.932;2023-05-10T01:22:52;10.98;;;5.22;;
45893;SDS011;31603;51.148;16.932;2023-05-10T01:25:31;13.48;;;5.47;;
45893;SDS011;31603;51.148;16.932;2023-05-10T01:28:14;10.40;;;5.53;;
45893;SDS011;31603;51.148;16.932;2023-05-10T01:33:26;10.50;;;5.63;;
45893;SDS011;31603;51.148;16.932;2023-05-10T01:35:54;9.15;;;6.07;;
45893;SDS011;31603;51.148;16.932;2023-05-10T01:38:22;8.65;;;4.72;;
45893;SDS011;31603;51.148;16.932;2023-05-10T01:40:55;11.18;;;4.80;;
45893;SDS011;31603;51.148;16.932;2023-05-10T01:43:26;12.43;;;6.45;;
45893;SDS011;31603;51.148;16.932;2023-05-10T01:45:57;9.85;;;5.60;;
45893;SDS011;31603;51.148;16.932;2023-05-10T01:48:26;10.13;;;6.15;;
45893;SDS011;31603;51.148;16.932;2023-05-10T01:50:53;12.52;;;6.18;;
45893;SDS011;31603;51.148;16.932;2023-05-10T01:53:21;10.55;;;5.85;;
45893;SDS011;31603;51.148;16.932;2023-05-10T01:55:49;9.68;;;5.40;;
45893;SDS011;31603;51.148;16.932;2023-05-10T01:58:18;10.05;;;5.57;;
45893;SDS011;31603;51.148;16.932;2023-05-10T02:00:46;10.85;;;5.63;;
45893;SDS011;31603;51.148;16.932;2023-05-10T02:03:13;14.95;;;5.55;;
45893;SDS011;31603;51.148;16.932;2023-05-10T02:05:42;12.93;;;5.85;;
45893;SDS011;31603;51.148;16.932;2023-05-10T02:08:09;9.95;;;5.57;;
45893;SDS011;31603;51.148;16.932;2023-05-10T02:10:35;11.07;;;5.60;;
45893;SDS011;31603;51.148;16.932;2023-05-10T02:13:02;9.25;;;5.28;;
45893;SDS011;31603;51.148;16.932;2023-05-10T02:15:29;11.38;;;5.75;;
45893;SDS011;31603;51.148;16.932;2023-05-10T02:17:56;10.82;;;6.30;;
45893;SDS011;31603;51.148;16.932;2023-05-10T02:20:23;10.20;;;6.75;;
45893;SDS011;31603;51.148;16.932;2023-05-10T02:22:52;10.32;;;5.95;;
45893;SDS011;31603;51.148;16.932;2023-05-10T02:25:20;11.27;;;5.95;;
45893;SDS011;31603;51.148;16.932;2023-05-10T02:27:47;11.10;;;5.45;;
45893;SDS011;31603;51.148;16.932;2023-05-10T02:30:14;10.77;;;6.20;;
45893;SDS011;31603;51.148;16.932;2023-05-10T02:32:40;9.65;;;5.13;;
45893;SDS011;31603;51.148;16.932;2023-05-10T02:35:07;8.07;;;4.82;;
45893;SDS011;31603;51.148;16.932;2023-05-10T02:37:34;15.38;;;6.07;;
45893;SDS011;31603;51.148;16.932;2023-05-10T02:40:03;11.23;;;5.65;;
45893;SDS011;31603;51.148;16.932;2023-05-10T02:42:32;11.73;;;5.78;;
45893;SDS011;31603;51.148;16.932;2023-05-10T02:44:59;9.07;;;5.13;;
45893;SDS011;31603;51.148;16.932;2023-05-10T02:47:26;12.10;;;5.88;;
45893;SDS011;31603;51.148;16.932;2023-05-10T02:49:53;10.50;;;5.22;;
45893;SDS011;31603;51.148;16.932;2023-05-10T02:52:21;8.35;;;5.72;;
45893;SDS011;31603;51.148;16.932;2023-05-10T02:54:48;10.55;;;6.18;;
45893;SDS011;31603;51.148;16.932;2023-05-10T02:57:16;9.95;;;5.70;;
45893;SDS011;31603;51.148;16.932;2023-05-10T02:59:44;10.63;;;5.78;;
45893;SDS011;31603;51.148;16.932;2023-05-10T03:02:11;11.45;;;5.63;;
45893;SDS011;31603;51.148;16.932;2023-05-10T03:04:38;9.27;;;5.25;;
45893;SDS011;31603;51.148;16.932;2023-05-10T03:07:04;8.60;;;5.53;;
45893;SDS011;31603;51.148;16.932;2023-05-10T03:09:30;11.80;;;5.40;;
45893;SDS011;31603;51.148;16.932;2023-05-10T03:12:05;9.35;;;5.68;;
45893;SDS011;31603;51.148;16.932;2023-05-10T03:14:39;11.38;;;6.05;;
45893;SDS011;31603;51.148;16.932;2023-05-10T03:17:10;8.20;;;5.47;;
45893;SDS011;31603;51.148;16.932;2023-05-10T03:19:38;9.07;;;5.28;;
45893;SDS011;31603;51.148;16.932;2023-05-10T03:22:07;10.65;;;6.28;;
45893;SDS011;31603;51.148;16.932;2023-05-10T03:24:35;9.18;;;5.90;;
45893;SDS011;31603;51.148;16.932;2023-05-10T03:27:02;14.23;;;5.85;;
45893;SDS011;31603;51.148;16.932;2023-05-10T03:29:29;10.82;;;5.63;;
45893;SDS011;31603;51.148;16.932;2023-05-10T03:31:58;9.68;;;5.05;;
45893;SDS011;31603;51.148;16.932;2023-05-10T03:34:25;11.65;;;6.65;;
45893;SDS011;31603;51.148;16.932;2023-05-10T03:36:51;11.00;;;6.10;;
45893;SDS011;31603;51.148;16.932;2023-05-10T03:39:18;11.20;;;6.30;;
45893;SDS011;31603;51.148;16.932;2023-05-10T03:41:44;10.50;;;5.60;;
45893;SDS011;31603;51.148;16.932;2023-05-10T03:44:10;16.40;;;5.70;;
45893;SDS011;31603;51.148;16.932;2023-05-10T03:46:36;9.65;;;5.75;;
45893;SDS011;31603;51.148;16.932;2023-05-10T03:49:04;12.82;;;5.85;;
45893;SDS011;31603;51.148;16.932;2023-05-10T03:51:30;11.05;;;5.55;;
45893;SDS011;31603;51.148;16.932;2023-05-10T03:53:56;10.32;;;5.45;;
45893;SDS011;31603;51.148;16.932;2023-05-10T03:56:22;10.45;;;5.82;;
45893;SDS011;31603;51.148;16.932;2023-05-10T03:58:49;11.35;;;5.30;;
45893;SDS011;31603;51.148;16.932;2023-05-10T04:01:15;11.52;;;5.57;;
45893;SDS011;31603;51.148;16.932;2023-05-10T04:03:41;10.15;;;6.00;;
45893;SDS011;31603;51.148;16.932;2023-05-10T04:06:09;11.50;;;5.70;;
45893;SDS011;31603;51.148;16.932;2023-05-10T04:08:36;9.85;;;5.55;;
45893;SDS011;31603;51.148;16.932;2023-05-10T04:11:06;12.40;;;6.05;;
45893;SDS011;31603;51.148;16.932;2023-05-10T04:13:32;9.98;;;6.05;;
45893;SDS011;31603;51.148;16.932;2023-05-10T04:15:59;13.02;;;5.88;;
45893;SDS011;31603;51.148;16.932;2023-05-10T04:18:25;11.68;;;6.05;;
45893;SDS011;31603;51.148;16.932;2023-05-10T04:20:51;9.77;;;5.55;;
45893;SDS011;31603;51.148;16.932;2023-05-10T04:23:19;13.20;;;5.68;;
45893;SDS011;31603;51.148;16.932;2023-05-10T04:25:45;13.38;;;6.20;;
45893;SDS011;31603;51.148;16.932;2023-05-10T04:28:11;12.85;;;5.95;;
45893;SDS011;31603;51.148;16.932;2023-05-10T04:30:37;11.15;;;5.90;;
45893;SDS011;31603;51.148;16.932;2023-05-10T04:33:04;9.55;;;5.50;;
45893;SDS011;31603;51.148;16.932;2023-05-10T04:35:30;11.27;;;6.05;;
45893;SDS011;31603;51.148;16.932;2023-05-10T04:37:56;8.05;;;5.07;;
45893;SDS011;31603;51.148;16.932;2023-05-10T04:40:24;11.60;;;5.60;;
45893;SDS011;31603;51.148;16.932;2023-05-10T04:42:50;12.57;;;6.28;;
45893;SDS011;31603;51.148;16.932;2023-05-10T04:45:17;10.45;;;6.05;;
45893;SDS011;31603;51.148;16.932;2023-05-10T04:47:43;10.20;;;5.18;;
45893;SDS011;31603;51.148;16.932;2023-05-10T04:50:09;8.25;;;5.30;;
45893;SDS011;31603;51.148;16.932;2023-05-10T04:52:35;9.77;;;6.10;;
45893;SDS011;31603;51.148;16.932;2023-05-10T04:55:02;10.48;;;5.28;;
45893;SDS011;31603;51.148;16.932;2023-05-10T04:57:30;8.10;;;4.72;;
45893;SDS011;31603;51.148;16.932;2023-05-10T04:59:56;8.98;;;5.18;;
45893;SDS011;31603;51.148;16.932;2023-05-10T05:02:22;9.65;;;5.22;;
45893;SDS011;31603;51.148;16.932;2023-05-10T05:04:49;8.77;;;5.00;;
45893;SDS011;31603;51.148;16.932;2023-05-10T05:07:15;9.10;;;5.10;;
45893;SDS011;31603;51.148;16.932;2023-05-10T05:09:42;12.15;;;5.25;;
45893;SDS011;31603;51.148;16.932;2023-05-10T05:12:08;11.90;;;5.95;;
45893;SDS011;31603;51.148;16.932;2023-05-10T05:14:40;10.15;;;5.68;;
45893;SDS011;31603;51.148;16.932;2023-05-10T05:17:06;11.18;;;5.38;;
45893;SDS011;31603;51.148;16.932;2023-05-10T05:19:32;11.82;;;5.55;;
45893;SDS011;31603;51.148;16.932;2023-05-10T05:21:58;11.45;;;5.80;;
45893;SDS011;31603;51.148;16.932;2023-05-10T05:24:25;9.73;;;4.90;;
45893;SDS011;31603;51.148;16.932;2023-05-10T05:26:51;10.52;;;5.40;;
45893;SDS011;31603;51.148;16.932;2023-05-10T05:29:17;7.72;;;4.93;;
45893;SDS011;31603;51.148;16.932;2023-05-10T05:31:45;13.80;;;5.78;;
45893;SDS011;31603;51.148;16.932;2023-05-10T05:34:11;8.07;;;4.75;;
45893;SDS011;31603;51.148;16.932;2023-05-10T05:36:37;12.30;;;6.05;;
45893;SDS011;31603;51.148;16.932;2023-05-10T05:39:04;11.10;;;5.50;;
45893;SDS011;31603;51.148;16.932;2023-05-10T05:41:30;11.63;;;5.22;;
45893;SDS011;31603;51.148;16.932;2023-05-10T05:43:56;8.73;;;5.18;;
45893;SDS011;31603;51.148;16.932;2023-05-10T05:46:22;9.15;;;5.40;;
45893;SDS011;31603;51.148;16.932;2023-05-10T05:48:50;10.05;;;4.95;;
45893;SDS011;31603;51.148;16.932;2023-05-10T05:51:16;11.93;;;4.65;;
45893;SDS011;31603;51.148;16.932;2023-05-10T05:53:42;7.88;;;4.93;;
45893;SDS011;31603;51.148;16.932;2023-05-10T05:56:09;9.23;;;4.72;;
45893;SDS011;31603;51.148;16.932;2023-05-10T05:58:35;9.10;;;5.20;;
45893;SDS011;31603;51.148;16.932;2023-05-10T06:01:01;8.52;;;5.00;;
45893;SDS011;31603;51.148;16.932;2023-05-10T06:03:27;11.55;;;5.55;;
45893;SDS011;31603;51.148;16.932;2023-05-10T06:05:55;9.20;;;5.18;;
45893;SDS011;31603;51.148;16.932;2023-05-10T06:08:21;7.00;;;4.80;;
45893;SDS011;31603;51.148;16.932;2023-05-10T06:10:47;7.95;;;5.03;;
45893;SDS011;31603;51.148;16.932;2023-05-10T06:13:14;8.65;;;5.15;;
45893;SDS011;31603;51.148;16.932;2023-05-10T06:15:40;10.15;;;4.80;;
45893;SDS011;31603;51.148;16.932;2023-05-10T06:18:06;9.38;;;4.78;;
45893;SDS011;31603;51.148;16.932;2023-05-10T06:20:33;11.35;;;6.97;;
45893;SDS011;31603;51.148;16.932;2023-05-10T06:23:00;6.75;;;4.18;;
45893;SDS011;31603;51.148;16.932;2023-05-10T06:25:26;7.85;;;4.57;;
45893;SDS011;31603;51.148;16.932;2023-05-10T06:27:53;8.85;;;4.93;;
45893;SDS011;31603;51.148;16.932;2023-05-10T06:30:23;8.57;;;4.80;;
45893;SDS011;31603;51.148;16.932;2023-05-10T06:32:52;8.75;;;4.75;;
45893;SDS011;31603;51.148;16.932;2023-05-10T06:35:18;9.18;;;4.88;;
45893;SDS011;31603;51.148;16.932;2023-05-10T06:37:44;8.40;;;4.45;;
45893;SDS011;31603;51.148;16.932;2023-05-10T06:40:13;6.82;;;4.32;;
45893;SDS011;31603;51.148;16.932;2023-05-10T06:42:39;9.52;;;4.60;;
45893;SDS011;31603;51.148;16.932;2023-05-10T06:45:06;10.63;;;4.30;;
45893;SDS011;31603;51.148;16.932;2023-05-10T06:47:33;13.98;;;4.30;;
45893;SDS011;31603;51.148;16.932;2023-05-10T06:49:59;10.45;;;5.05;;
45893;SDS011;31603;51.148;16.932;2023-05-10T06:52:26;7.28;;;4.15;;
45893;SDS011;31603;51.148;16.932;2023-05-10T06:54:52;9.88;;;4.30;;
45893;SDS011;31603;51.148;16.932;2023-05-10T06:57:20;6.70;;;4.47;;
45893;SDS011;31603;51.148;16.932;2023-05-10T06:59:46;6.05;;;3.97;;
45893;SDS011;31603;51.148;16.932;2023-05-10T07:02:12;9.27;;;4.32;;
45893;SDS011;31603;51.148;16.932;2023-05-10T07:04:39;6.93;;;4.18;;
45893;SDS011;31603;51.148;16.932;2023-05-10T07:07:06;7.10;;;3.90;;
45893;SDS011;31603;51.148;16.932;2023-05-10T07:09:33;7.43;;;4.03;;
45893;SDS011;31603;51.148;16.932;2023-05-10T07:11:59;8.63;;;4.15;;
45893;SDS011;31603;51.148;16.932;2023-05-10T07:14:28;6.75;;;4.03;;
45893;SDS011;31603;51.148;16.932;2023-05-10T07:16:54;7.93;;;4.13;;
45893;SDS011;31603;51.148;16.932;2023-05-10T07:19:20;5.97;;;3.58;;
45893;SDS011;31603;51.148;16.932;2023-05-10T07:21:46;7.63;;;4.00;;
45893;SDS011;31603;51.148;16.932;2023-05-10T07:24:13;7.40;;;3.72;;
45893;SDS011;31603;51.148;16.932;2023-05-10T07:26:39;15.93;;;4.22;;
45893;SDS011;31603;51.148;16.932;2023-05-10T07:29:05;7.45;;;3.80;;
45893;SDS011;31603;51.148;16.932;2023-05-10T07:31:33;6.93;;;4.03;;
45893;SDS011;31603;51.148;16.932;2023-05-10T07:33:59;8.75;;;4.20;;
45893;SDS011;31603;51.148;16.932;2023-05-10T07:36:25;6.85;;;3.33;;
45893;SDS011;31603;51.148;16.932;2023-05-10T07:38:52;5.25;;;3.60;;
45893;SDS011;31603;51.148;16.932;2023-05-10T07:41:19;6.53;;;4.07;;
45893;SDS011;31603;51.148;16.932;2023-05-10T07:43:45;5.68;;;3.45;;
45893;SDS011;31603;51.148;16.932;2023-05-10T07:46:12;8.80;;;3.53;;
45893;SDS011;31603;51.148;16.932;2023-05-10T07:48:39;13.00;;;4.07;;
45893;SDS011;31603;51.148;16.932;2023-05-10T07:51:06;8.15;;;3.75;;
45893;SDS011;31603;51.148;16.932;2023-05-10T07:53:34;11.82;;;4.05;;
45893;SDS011;31603;51.148;16.932;2023-05-10T07:56:19;5.97;;;4.00;;
45893;SDS011;31603;51.148;16.932;2023-05-10T07:58:45;6.97;;;3.65;;
45893;SDS011;31603;51.148;16.932;2023-05-10T08:01:12;7.00;;;4.13;;
45893;SDS011;31603;51.148;16.932;2023-05-10T08:03:39;5.90;;;3.70;;
45893;SDS011;31603;51.148;16.932;2023-05-10T08:06:05;7.82;;;4.07;;
45893;SDS011;31603;51.148;16.932;2023-05-10T08:08:32;8.00;;;4.55;;
45893;SDS011;31603;51.148;16.932;2023-05-10T08:10:58;6.18;;;3.78;;
45893;SDS011;31603;51.148;16.932;2023-05-10T08:13:24;14.20;;;3.65;;
45893;SDS011;31603;51.148;16.932;2023-05-10T08:15:50;6.30;;;3.42;;
45893;SDS011;31603;51.148;16.932;2023-05-10T08:18:18;8.50;;;3.80;;
45893;SDS011;31603;51.148;16.932;2023-05-10T08:20:45;5.40;;;3.50;;
45893;SDS011;31603;51.148;16.932;2023-05-10T08:23:12;6.15;;;3.20;;
45893;SDS011;31603;51.148;16.932;2023-05-10T08:25:38;7.38;;;3.65;;
45893;SDS011;31603;51.148;16.932;2023-05-10T08:28:05;7.70;;;3.10;;
45893;SDS011;31603;51.148;16.932;2023-05-10T08:30:31;4.82;;;2.78;;
45893;SDS011;31603;51.148;16.932;2023-05-10T08:32:57;7.80;;;3.85;;
45893;SDS011;31603;51.148;16.932;2023-05-10T08:35:23;9.27;;;3.67;;
45893;SDS011;31603;51.148;16.932;2023-05-10T08:37:51;15.35;;;3.63;;
45893;SDS011;31603;51.148;16.932;2023-05-10T08:40:19;5.97;;;3.15;;
45893;SDS011;31603;51.148;16.932;2023-05-10T08:42:47;5.45;;;3.70;;
45893;SDS011;31603;51.148;16.932;2023-05-10T08:47:43;17.75;;;4.35;;
45893;SDS011;31603;51.148;16.932;2023-05-10T08:50:10;8.75;;;3.95;;
45893;SDS011;31603;51.148;16.932;2023-05-10T08:52:37;10.95;;;4.25;;
45893;SDS011;31603;51.148;16.932;2023-05-10T08:55:06;7.25;;;3.83;;
45893;SDS011;31603;51.148;16.932;2023-05-10T08:57:32;7.30;;;3.67;;
45893;SDS011;31603;51.148;16.932;2023-05-10T08:59:58;10.55;;;4.63;;
45893;SDS011;31603;51.148;16.932;2023-05-10T09:02:26;10.88;;;4.38;;
45893;SDS011;31603;51.148;16.932;2023-05-10T09:04:52;11.82;;;3.75;;
45893;SDS011;31603;51.148;16.932;2023-05-10T09:07:19;14.13;;;4.43;;
45893;SDS011;31603;51.148;16.932;2023-05-10T09:09:45;8.18;;;4.15;;
45893;SDS011;31603;51.148;16.932;2023-05-10T09:12:13;4.05;;;2.45;;
45893;SDS011;31603;51.148;16.932;2023-05-10T09:14:40;4.88;;;2.25;;
45893;SDS011;31603;51.148;16.932;2023-05-10T09:17:08;3.47;;;2.30;;
45893;SDS011;31603;51.148;16.932;2023-05-10T09:19:35;3.70;;;2.88;;
45893;SDS011;31603;51.148;16.932;2023-05-10T09:22:01;4.25;;;2.50;;
45893;SDS011;31603;51.148;16.932;2023-05-10T09:24:28;5.30;;;2.28;;
45893;SDS011;31603;51.148;16.932;2023-05-10T09:26:54;7.32;;;2.55;;
45893;SDS011;31603;51.148;16.932;2023-05-10T09:29:23;4.80;;;2.70;;
45893;SDS011;31603;51.148;16.932;2023-05-10T09:31:50;6.38;;;2.65;;
45893;SDS011;31603;51.148;16.932;2023-05-10T09:34:19;5.18;;;1.80;;
45893;SDS011;31603;51.148;16.932;2023-05-10T09:36:56;4.35;;;2.90;;
45893;SDS011;31603;51.148;16.932;2023-05-10T09:39:29;5.05;;;2.50;;
45893;SDS011;31603;51.148;16.932;2023-05-10T09:41:56;6.05;;;2.80;;
45893;SDS011;31603;51.148;16.932;2023-05-10T09:44:24;7.10;;;2.45;;
45893;SDS011;31603;51.148;16.932;2023-05-10T09:46:51;3.40;;;2.55;;
45893;SDS011;31603;51.148;16.932;2023-05-10T09:49:17;4.85;;;2.83;;
45893;SDS011;31603;51.148;16.932;2023-05-10T09:51:43;6.55;;;2.78;;
45893;SDS011;31603;51.148;16.932;2023-05-10T09:54:10;4.35;;;2.33;;
45893;SDS011;31603;51.148;16.932;2023-05-10T09:56:38;4.25;;;2.67;;
45893;SDS011;31603;51.148;16.932;2023-05-10T09:59:06;3.20;;;2.30;;
45893;SDS011;31603;51.148;16.932;2023-05-10T10:01:34;5.25;;;2.60;;
45893;SDS011;31603;51.148;16.932;2023-05-10T10:04:02;3.70;;;2.42;;
45893;SDS011;31603;51.148;16.932;2023-05-10T10:06:28;6.30;;;2.80;;
45893;SDS011;31603;51.148;16.932;2023-05-10T10:08:54;5.50;;;2.60;;
45893;SDS011;31603;51.148;16.932;2023-05-10T10:11:21;3.30;;;2.53;;
45893;SDS011;31603;51.148;16.932;2023-05-10T10:13:48;4.82;;;2.40;;
45893;SDS011;31603;51.148;16.932;2023-05-10T10:16:14;4.45;;;2.53;;
45893;SDS011;31603;51.148;16.932;2023-05-10T10:18:44;6.07;;;3.33;;
45893;SDS011;31603;51.148;16.932;2023-05-10T10:21:10;8.68;;;2.55;;
45893;SDS011;31603;51.148;16.932;2023-05-10T10:23:36;3.85;;;2.13;;
45893;SDS011;31603;51.148;16.932;2023-05-10T10:26:03;4.65;;;2.55;;
45893;SDS011;31603;51.148;16.932;2023-05-10T10:28:32;3.65;;;2.10;;
45893;SDS011;31603;51.148;16.932;2023-05-10T10:31:03;4.65;;;2.28;;
45893;SDS011;31603;51.148;16.932;2023-05-10T10:33:40;4.88;;;2.25;;
45893;SDS011;31603;51.148;16.932;2023-05-10T10:36:15;4.35;;;2.45;;
45893;SDS011;31603;51.148;16.932;2023-05-10T10:38:59;5.25;;;2.13;;
45893;SDS011;31603;51.148;16.932;2023-05-10T10:41:30;3.33;;;2.13;;
45893;SDS011;31603;51.148;16.932;2023-05-10T10:49:49;8.80;;;2.67;;
45893;SDS011;31603;51.148;16.932;2023-05-10T10:52:24;5.93;;;2.10;;
45893;SDS011;31603;51.148;16.932;2023-05-10T10:54:54;5.32;;;2.53;;
45893;SDS011;31603;51.148;16.932;2023-05-10T10:57:23;3.13;;;2.05;;
45893;SDS011;31603;51.148;16.932;2023-05-10T10:59:51;3.35;;;2.60;;
45893;SDS011;31603;51.148;16.932;2023-05-10T11:02:32;3.45;;;2.00;;
45893;SDS011;31603;51.148;16.932;2023-05-10T11:04:58;13.52;;;4.13;;
45893;SDS011;31603;51.148;16.932;2023-05-10T11:07:27;4.13;;;2.30;;
45893;SDS011;31603;51.148;16.932;2023-05-10T11:09:53;4.15;;;2.50;;
45893;SDS011;31603;51.148;16.932;2023-05-10T11:12:19;3.85;;;2.58;;
45893;SDS011;31603;51.148;16.932;2023-05-10T11:14:49;12.90;;;4.30;;
45893;SDS011;31603;51.148;16.932;2023-05-10T11:17:21;11.65;;;4.65;;
45893;SDS011;31603;51.148;16.932;2023-05-10T11:20:02;3.00;;;2.25;;
45893;SDS011;31603;51.148;16.932;2023-05-10T11:22:30;4.85;;;2.53;;
45893;SDS011;31603;51.148;16.932;2023-05-10T11:25:15;4.72;;;2.97;;
45893;SDS011;31603;51.148;16.932;2023-05-10T11:27:41;4.85;;;2.42;;
45893;SDS011;31603;51.148;16.932;2023-05-10T11:30:07;2.83;;;2.30;;
45893;SDS011;31603;51.148;16.932;2023-05-10T11:32:36;4.20;;;2.10;;
45893;SDS011;31603;51.148;16.932;2023-05-10T11:35:06;4.60;;;1.88;;
45893;SDS011;31603;51.148;16.932;2023-05-10T11:37:33;4.93;;;1.88;;
45893;SDS011;31603;51.148;16.932;2023-05-10T11:40:00;6.10;;;2.05;;
45893;SDS011;31603;51.148;16.932;2023-05-10T11:42:27;5.57;;;2.22;;
45893;SDS011;31603;51.148;16.932;2023-05-10T11:44:53;3.80;;;2.08;;
45893;SDS011;31603;51.148;16.932;2023-05-10T11:47:20;5.10;;;2.10;;
45893;SDS011;31603;51.148;16.932;2023-05-10T11:49:46;3.72;;;2.78;;
45893;SDS011;31603;51.148;16.932;2023-05-10T11:52:12;5.97;;;2.47;;
45893;SDS011;31603;51.148;16.932;2023-05-10T11:54:46;3.55;;;2.03;;
45893;SDS011;31603;51.148;16.932;2023-05-10T11:57:17;4.78;;;2.10;;
45893;SDS011;31603;51.148;16.932;2023-05-10T11:59:43;5.25;;;2.40;;
45893;SDS011;31603;51.148;16.932;2023-05-10T12:02:10;3.03;;;1.98;;
45893;SDS011;31603;51.148;16.932;2023-05-10T12:04:37;3.17;;;2.00;;
45893;SDS011;31603;51.148;16.932;2023-05-10T12:07:03;2.75;;;1.83;;
45893;SDS011;31603;51.148;16.932;2023-05-10T12:09:29;4.22;;;2.17;;
45893;SDS011;31603;51.148;16.932;2023-05-10T12:11:57;3.85;;;1.90;;
45893;SDS011;31603;51.148;16.932;2023-05-10T12:14:23;3.50;;;2.10;;
45893;SDS011;31603;51.148;16.932;2023-05-10T12:16:50;5.03;;;2.00;;
45893;SDS011;31603;51.148;16.932;2023-05-10T12:19:18;7.55;;;2.10;;
45893;SDS011;31603;51.148;16.932;2023-05-10T12:21:44;6.63;;;2.03;;
45893;SDS011;31603;51.148;16.932;2023-05-10T12:24:10;2.92;;;2.03;;
45893;SDS011;31603;51.148;16.932;2023-05-10T12:26:37;6.22;;;1.90;;
45893;SDS011;31603;51.148;16.932;2023-05-10T12:29:14;3.55;;;2.15;;
45893;SDS011;31603;51.148;16.932;2023-05-10T12:31:53;4.90;;;2.05;;
45893;SDS011;31603;51.148;16.932;2023-05-10T12:34:23;3.58;;;2.03;;
45893;SDS011;31603;51.148;16.932;2023-05-10T12:36:50;3.60;;;1.80;;
45893;SDS011;31603;51.148;16.932;2023-05-10T12:39:16;2.88;;;1.50;;
45893;SDS011;31603;51.148;16.932;2023-05-10T12:41:42;5.78;;;2.60;;
45893;SDS011;31603;51.148;16.932;2023-05-10T12:44:09;4.40;;;2.00;;
45893;SDS011;31603;51.148;16.932;2023-05-10T12:46:36;2.88;;;1.58;;
45893;SDS011;31603;51.148;16.932;2023-05-10T12:49:03;9.70;;;1.90;;
45893;SDS011;31603;51.148;16.932;2023-05-10T12:51:29;19.00;;;12.90;;
45893;SDS011;31603;51.148;16.932;2023-05-10T12:53:55;3.20;;;1.60;;
45893;SDS011;31603;51.148;16.932;2023-05-10T12:56:21;6.90;;;2.60;;
45893;SDS011;31603;51.148;16.932;2023-05-10T12:58:48;3.80;;;1.92;;
45893;SDS011;31603;51.148;16.932;2023-05-10T13:01:32;3.83;;;1.90;;
45893;SDS011;31603;51.148;16.932;2023-05-10T13:04:00;7.00;;;2.08;;
45893;SDS011;31603;51.148;16.932;2023-05-10T13:06:26;8.68;;;1.70;;
45893;SDS011;31603;51.148;16.932;2023-05-10T13:08:53;4.50;;;2.00;;
45893;SDS011;31603;51.148;16.932;2023-05-10T13:11:19;5.00;;;2.10;;
45893;SDS011;31603;51.148;16.932;2023-05-10T13:13:46;3.45;;;2.05;;
45893;SDS011;31603;51.148;16.932;2023-05-10T13:16:12;3.13;;;1.67;;
45893;SDS011;31603;51.148;16.932;2023-05-10T13:18:39;2.55;;;1.55;;
45893;SDS011;31603;51.148;16.932;2023-05-10T13:21:07;4.10;;;1.60;;
45893;SDS011;31603;51.148;16.932;2023-05-10T13:23:33;3.20;;;1.50;;
45893;SDS011;31603;51.148;16.932;2023-05-10T13:26:00;3.22;;;1.75;;
45893;SDS011;31603;51.148;16.932;2023-05-10T13:28:26;1.73;;;1.50;;
45893;SDS011;31603;51.148;16.932;2023-05-10T13:30:52;3.65;;;1.58;;
45893;SDS011;31603;51.148;16.932;2023-05-10T13:33:19;2.38;;;1.42;;
45893;SDS011;31603;51.148;16.932;2023-05-10T13:35:45;3.83;;;1.20;;
45893;SDS011;31603;51.148;16.932;2023-05-10T13:38:13;2.60;;;1.50;;
45893;SDS011;31603;51.148;16.932;2023-05-10T13:40:40;1.83;;;1.60;;
45893;SDS011;31603;51.148;16.932;2023-05-10T13:43:06;4.28;;;2.03;;
45893;SDS011;31603;51.148;16.932;2023-05-10T13:45:32;3.83;;;1.50;;
45893;SDS011;31603;51.148;16.932;2023-05-10T13:47:59;6.07;;;1.83;;
45893;SDS011;31603;51.148;16.932;2023-05-10T13:50:25;2.88;;;1.63;;
45893;SDS011;31603;51.148;16.932;2023-05-10T13:52:52;8.68;;;1.70;;
45893;SDS011;31603;51.148;16.932;2023-05-10T13:55:20;4.97;;;1.48;;
45893;SDS011;31603;51.148;16.932;2023-05-10T13:57:46;1.70;;;1.20;;
45893;SDS011;31603;51.148;16.932;2023-05-10T14:00:13;2.50;;;1.60;;
45893;SDS011;31603;51.148;16.932;2023-05-10T14:02:40;1.75;;;1.50;;
45893;SDS011;31603;51.148;16.932;2023-05-10T14:05:06;3.50;;;1.60;;
45893;SDS011;31603;51.148;16.932;2023-05-10T14:07:33;5.28;;;1.60;;
45893;SDS011;31603;51.148;16.932;2023-05-10T14:09:59;3.03;;;1.40;;
45893;SDS011;31603;51.148;16.932;2023-05-10T14:12:27;7.75;;;2.33;;
45893;SDS011;31603;51.148;16.932;2023-05-10T14:14:54;5.05;;;1.63;;
45893;SDS011;31603;51.148;16.932;2023-05-10T14:17:20;2.75;;;1.50;;
45893;SDS011;31603;51.148;16.932;2023-05-10T14:19:47;2.78;;;1.60;;
45893;SDS011;31603;51.148;16.932;2023-05-10T14:22:13;5.32;;;1.95;;
45893;SDS011;31603;51.148;16.932;2023-05-10T14:24:39;2.63;;;2.00;;
45893;SDS011;31603;51.148;16.932;2023-05-10T14:27:06;5.15;;;1.50;;
45893;SDS011;31603;51.148;16.932;2023-05-10T14:29:34;2.50;;;1.65;;
45893;SDS011;31603;51.148;16.932;2023-05-10T14:32:00;2.00;;;1.60;;
45893;SDS011;31603;51.148;16.932;2023-05-10T14:34:27;3.22;;;1.80;;
45893;SDS011;31603;51.148;16.932;2023-05-10T14:36:54;1.90;;;1.52;;
45893;SDS011;31603;51.148;16.932;2023-05-10T14:39:21;2.90;;;1.42;;
45893;SDS011;31603;51.148;16.932;2023-05-10T14:41:47;2.65;;;1.58;;
45893;SDS011;31603;51.148;16.932;2023-05-10T14:44:14;4.80;;;1.63;;